createdAt,value
2016-04-21T00:01:06.664Z,0
2016-04-21T00:01:52.336Z,0
2016-04-21T00:02:52.917Z,0
2016-04-21T00:03:52.701Z,0
2016-04-21T00:04:53.000Z,0
2016-04-21T00:05:52.831Z,0
2016-04-21T00:06:52.411Z,0
2016-04-21T00:07:52.430Z,0
2016-04-21T00:08:52.496Z,0
2016-04-21T00:09:52.749Z,0
2016-04-21T00:10:52.548Z,0
2016-04-21T00:11:52.222Z,0
2016-04-21T00:12:52.991Z,0
2016-04-21T00:13:52.822Z,0
2016-04-21T00:14:52.433Z,0
2016-04-21T00:15:52.343Z,0
2016-04-21T00:16:52.345Z,0
2016-04-21T00:17:52.332Z,0
2016-04-21T00:18:52.335Z,0
2016-04-21T00:19:52.291Z,0
2016-04-21T00:20:52.310Z,0
2016-04-21T00:21:52.296Z,0
2016-04-21T00:22:52.299Z,0
2016-04-21T00:23:52.286Z,0
2016-04-21T00:24:52.273Z,0
2016-04-21T00:25:52.259Z,0
2016-04-21T00:26:52.262Z,0
2016-04-21T00:27:52.250Z,0
2016-04-21T00:28:52.221Z,0
2016-04-21T00:29:52.209Z,0
2016-04-21T00:30:52.226Z,0
2016-04-21T00:31:52.198Z,0
2016-04-21T00:32:52.216Z,0
2016-04-21T00:33:52.188Z,0
2016-04-21T00:34:52.191Z,0
2016-04-21T00:35:52.161Z,0
2016-04-21T00:36:52.181Z,0
2016-04-21T00:37:52.152Z,0
2016-04-21T00:38:52.154Z,0
2016-04-21T00:39:52.126Z,0
2016-04-21T00:40:52.144Z,0
2016-04-21T00:41:52.115Z,0
2016-04-21T00:42:52.133Z,0
2016-04-21T00:43:52.105Z,0
2016-04-21T00:44:52.093Z,0
2016-04-21T00:45:52.080Z,0
2016-04-21T00:46:52.066Z,0
2016-04-21T00:47:52.085Z,0
2016-04-21T00:48:52.056Z,0
2016-04-21T00:49:52.309Z,0
2016-04-21T00:50:52.780Z,0
2016-04-21T00:51:52.486Z,0
2016-04-21T00:52:51.911Z,0
2016-04-21T00:53:52.538Z,0
2016-04-21T00:54:52.260Z,0
2016-04-21T00:55:52.029Z,0
2016-04-21T00:56:51.968Z,0
2016-04-21T00:57:51.987Z,0
2016-04-21T00:58:53.020Z,0
2016-04-21T00:59:52.367Z,0
2016-04-21T01:00:53.667Z,0
2016-04-21T01:01:51.951Z,0
2016-04-21T01:02:52.047Z,0
2016-04-21T01:03:52.690Z,0
2016-04-21T01:04:51.927Z,0
2016-04-21T01:05:51.975Z,0
2016-04-21T01:06:51.977Z,0
2016-04-21T01:07:52.040Z,0
2016-04-21T01:08:52.057Z,0
2016-04-21T01:09:52.110Z,0
2016-04-21T01:10:52.115Z,0
2016-04-21T01:11:52.118Z,0
2016-04-21T01:12:52.137Z,0
2016-04-21T01:13:52.125Z,0
2016-04-21T01:14:52.109Z,0
2016-04-21T01:15:52.133Z,0
2016-04-21T01:16:52.141Z,0
2016-04-21T01:17:54.822Z,0
2016-04-21T01:18:53.393Z,0
2016-04-21T01:19:52.104Z,0
2016-04-21T01:20:52.359Z,0
2016-04-21T01:21:51.956Z,0
2016-04-21T01:22:52.107Z,0
2016-04-21T01:23:52.095Z,0
2016-04-21T01:24:52.069Z,0
2016-04-21T01:25:52.073Z,0
2016-04-21T01:26:52.060Z,0
2016-04-21T01:27:53.018Z,0
2016-04-21T01:28:52.958Z,0
2016-04-21T01:29:52.180Z,0
2016-04-21T01:31:06.201Z,0
2016-04-21T01:31:52.014Z,0
2016-04-21T01:32:52.626Z,0
2016-04-21T01:33:51.989Z,0
2016-04-21T01:34:52.007Z,0
2016-04-21T01:35:51.963Z,0
2016-04-21T01:36:51.966Z,0
2016-04-21T01:37:51.968Z,0
2016-04-21T01:38:51.957Z,0
2016-04-21T01:39:51.943Z,0
2016-04-21T01:40:51.946Z,0
2016-04-21T01:41:51.917Z,0
2016-04-21T01:42:51.764Z,0
2016-04-21T01:43:51.922Z,0
2016-04-21T01:44:51.909Z,0
2016-04-21T01:45:51.897Z,0
2016-04-21T01:46:51.915Z,0
2016-04-21T01:47:51.871Z,0
2016-04-21T01:48:51.842Z,0
2016-04-21T01:49:51.861Z,0
2016-04-21T01:50:51.832Z,0
2016-04-21T01:51:51.835Z,0
2016-04-21T01:52:51.822Z,0
2016-04-21T01:53:51.825Z,0
2016-04-21T01:54:51.828Z,0
2016-04-21T01:55:51.799Z,0
2016-04-21T01:56:51.786Z,0
2016-04-21T01:57:51.757Z,0
2016-04-21T01:58:51.775Z,0
2016-04-21T01:59:51.762Z,0
2016-04-21T02:00:51.765Z,0
2016-04-21T02:01:51.737Z,0
2016-04-21T02:02:51.740Z,0
2016-04-21T02:03:51.711Z,0
2016-04-21T02:04:51.713Z,0
2016-04-21T02:05:51.716Z,0
2016-04-21T02:06:51.703Z,0
2016-04-21T02:07:51.691Z,0
2016-04-21T02:08:51.662Z,0
2016-04-21T02:09:51.649Z,0
2016-04-21T02:10:51.651Z,0
2016-04-21T02:11:51.639Z,0
2016-04-21T02:12:51.641Z,0
2016-04-21T02:13:51.613Z,0
2016-04-21T02:14:51.616Z,0
2016-04-21T02:15:51.587Z,0
2016-04-21T02:16:51.605Z,0
2016-04-21T02:17:51.576Z,0
2016-04-21T02:18:51.578Z,0
2016-04-21T02:19:51.581Z,0
2016-04-21T02:20:51.585Z,0
2016-04-21T02:21:51.541Z,0
2016-04-21T02:22:51.543Z,0
2016-04-21T02:23:51.546Z,0
2016-04-21T02:24:51.534Z,0
2016-04-21T02:25:51.489Z,0
2016-04-21T02:26:51.492Z,0
2016-04-21T02:27:51.494Z,0
2016-04-21T02:28:51.481Z,0
2016-04-21T02:29:51.484Z,0
2016-04-21T02:30:51.455Z,0
2016-04-21T02:31:51.458Z,0
2016-04-21T02:32:51.429Z,0
2016-04-21T02:33:51.448Z,0
2016-04-21T02:34:51.419Z,0
2016-04-21T02:35:51.421Z,0
2016-04-21T02:36:52.363Z,0
2016-04-21T02:37:51.396Z,0
2016-04-21T02:38:51.383Z,0
2016-04-21T02:39:51.418Z,0
2016-04-21T02:40:51.373Z,0
2016-04-21T02:41:51.954Z,0
2016-04-21T02:42:51.331Z,0
2016-04-21T02:43:51.631Z,0
2016-04-21T02:44:51.353Z,0
2016-04-21T02:45:51.323Z,0
2016-04-21T02:47:05.892Z,0
2016-04-21T02:47:52.861Z,0
2016-04-21T02:48:51.676Z,0
2016-04-21T02:50:05.459Z,0
2016-04-21T02:50:51.572Z,0
2016-04-21T02:51:51.262Z,0
2016-04-21T02:52:51.608Z,0
2016-04-21T02:53:51.236Z,0
2016-04-21T02:54:51.223Z,0
2016-04-21T02:55:51.210Z,0
2016-04-21T02:56:51.213Z,0
2016-04-21T02:57:51.199Z,0
2016-04-21T02:58:51.203Z,0
2016-04-21T02:59:51.174Z,0
2016-04-21T03:00:51.177Z,0
2016-04-21T03:01:51.164Z,0
2016-04-21T03:02:51.151Z,0
2016-04-21T03:03:51.138Z,0
2016-04-21T03:04:51.141Z,0
2016-04-21T03:05:51.127Z,0
2016-04-21T03:06:51.115Z,0
2016-04-21T03:07:51.101Z,0
2016-04-21T03:08:52.682Z,0
2016-04-21T03:09:51.108Z,0
2016-04-21T03:10:51.094Z,0
2016-04-21T03:11:52.144Z,0
2016-04-21T03:12:51.943Z,0
2016-04-21T03:13:50.884Z,0
2016-04-21T03:14:51.449Z,4
2016-04-21T03:15:51.045Z,8
2016-04-21T03:16:51.001Z,16
2016-04-21T03:17:51.784Z,20
2016-04-21T03:18:51.006Z,24
2016-04-21T03:19:51.759Z,24
2016-04-21T03:20:52.183Z,24
2016-04-21T03:21:51.581Z,24
2016-04-21T03:22:50.963Z,24
2016-04-21T03:23:51.310Z,28
2016-04-21T03:24:50.796Z,28
2016-04-21T03:25:50.924Z,28
2016-04-21T03:26:50.927Z,28
2016-04-21T03:27:50.898Z,28
2016-04-21T03:28:50.902Z,32
2016-04-21T03:29:50.873Z,36
2016-04-21T03:30:50.875Z,40
2016-04-21T03:31:50.862Z,44
2016-04-21T03:32:50.850Z,44
2016-04-21T03:33:50.853Z,48
2016-04-21T03:34:50.839Z,52
2016-04-21T03:35:50.811Z,60
2016-04-21T03:36:50.814Z,68
2016-04-21T03:37:50.801Z,72
2016-04-21T03:38:50.803Z,64
2016-04-21T03:39:50.791Z,72
2016-04-21T03:40:50.793Z,80
2016-04-21T03:41:50.764Z,92
2016-04-21T03:42:50.767Z,104
2016-04-21T03:43:50.739Z,116
2016-04-21T03:44:50.741Z,132
2016-04-21T03:45:50.728Z,152
2016-04-21T03:46:50.715Z,168
2016-04-21T03:47:50.703Z,188
2016-04-21T03:48:50.705Z,212
2016-04-21T03:49:50.693Z,232
2016-04-21T03:50:50.663Z,260
2016-04-21T03:51:50.666Z,284
2016-04-21T03:52:50.668Z,312
2016-04-21T03:53:50.641Z,340
2016-04-21T03:54:50.487Z,376
2016-04-21T03:55:52.630Z,408
2016-04-21T03:56:50.712Z,444
2016-04-21T03:57:50.792Z,484
2016-04-21T03:58:50.607Z,520
2016-04-21T03:59:51.422Z,560
2016-04-21T04:00:50.565Z,604
2016-04-21T04:01:50.756Z,648
2016-04-21T04:02:50.556Z,700
2016-04-21T04:03:50.573Z,748
2016-04-21T04:04:50.920Z,800
2016-04-21T04:05:50.829Z,848
2016-04-21T04:06:50.503Z,904
2016-04-21T04:07:50.709Z,964
2016-04-21T04:08:51.305Z,1020
2016-04-21T04:09:51.090Z,1084
2016-04-21T04:10:50.467Z,1144
2016-04-21T04:11:50.470Z,1208
2016-04-21T04:12:50.441Z,1280
2016-04-21T04:13:50.444Z,1348
2016-04-21T04:14:50.446Z,1436
2016-04-21T04:15:50.433Z,1564
2016-04-21T04:16:50.421Z,1676
2016-04-21T04:17:50.408Z,1768
2016-04-21T04:18:50.380Z,1864
2016-04-21T04:19:50.398Z,1964
2016-04-21T04:20:50.401Z,2064
2016-04-21T04:21:50.372Z,2164
2016-04-21T04:22:50.360Z,2268
2016-04-21T04:23:50.346Z,2376
2016-04-21T04:24:50.333Z,2484
2016-04-21T04:25:50.335Z,2596
2016-04-21T04:26:50.307Z,2704
2016-04-21T04:27:50.873Z,2820
2016-04-21T04:28:50.656Z,2932
2016-04-21T04:29:50.285Z,3044
2016-04-21T04:30:50.256Z,3160
2016-04-21T04:31:50.618Z,3284
2016-04-21T04:32:50.604Z,3408
2016-04-21T04:33:50.264Z,3528
2016-04-21T04:34:50.391Z,3652
2016-04-21T04:35:50.238Z,3776
2016-04-21T04:36:52.584Z,3904
2016-04-21T04:37:50.618Z,4076
2016-04-21T04:38:51.231Z,4324
2016-04-21T04:39:51.092Z,4584
2016-04-21T04:40:50.501Z,4744
2016-04-21T04:41:50.363Z,4916
2016-04-21T04:42:50.428Z,5156
2016-04-21T04:43:50.166Z,5384
2016-04-21T04:44:50.200Z,5484
2016-04-21T04:45:50.155Z,5484
2016-04-21T04:46:50.158Z,5632
2016-04-21T04:47:50.160Z,5904
2016-04-21T04:48:50.148Z,6168
2016-04-21T04:49:50.150Z,6240
2016-04-21T04:50:50.169Z,6400
2016-04-21T04:51:50.124Z,6760
2016-04-21T04:52:50.143Z,7080
2016-04-21T04:53:50.161Z,7160
2016-04-21T04:54:50.133Z,7324
2016-04-21T04:55:50.105Z,7636
2016-04-21T04:56:50.123Z,7760
2016-04-21T04:57:50.094Z,7844
2016-04-21T04:58:50.112Z,7972
2016-04-21T04:59:50.099Z,8008
2016-04-21T05:00:50.086Z,7884
2016-04-21T05:01:50.105Z,8200
2016-04-21T05:02:50.107Z,8600
2016-04-21T05:03:50.095Z,8772
2016-04-21T05:04:50.081Z,8736
2016-04-21T05:05:50.084Z,8888
2016-04-21T05:06:50.070Z,8988
2016-04-21T05:07:50.089Z,9180
2016-04-21T05:08:50.109Z,9464
2016-04-21T05:09:50.079Z,9796
2016-04-21T05:10:50.082Z,10076
2016-04-21T05:11:50.100Z,10568
2016-04-21T05:12:50.072Z,10916
2016-04-21T05:13:50.089Z,11288
2016-04-21T05:14:50.139Z,11500
2016-04-21T05:15:50.814Z,11476
2016-04-21T05:16:50.645Z,11824
2016-04-21T05:17:50.085Z,11720
2016-04-21T05:19:04.869Z,12172
2016-04-21T05:19:50.700Z,12424
2016-04-21T05:20:50.313Z,12668
2016-04-21T05:21:50.080Z,13064
2016-04-21T05:22:50.068Z,13536
2016-04-21T05:23:52.976Z,13980
2016-04-21T05:24:51.729Z,14176
2016-04-21T05:25:50.185Z,14112
2016-04-21T05:27:04.281Z,14080
2016-04-21T05:27:50.877Z,14016
2016-04-21T05:28:50.146Z,14880
2016-04-21T05:29:50.118Z,15168
2016-04-21T05:30:50.121Z,16000
2016-04-21T05:31:50.107Z,16608
2016-04-21T05:32:50.192Z,16288
2016-04-21T05:33:49.993Z,16704
2016-04-21T05:34:50.527Z,16384
2016-04-21T05:35:49.842Z,16224
2016-04-21T05:36:50.719Z,17280
2016-04-21T05:37:50.071Z,17600
2016-04-21T05:38:50.262Z,17728
2016-04-21T05:39:50.140Z,17568
2016-04-21T05:40:50.143Z,17664
2016-04-21T05:41:50.145Z,18592
2016-04-21T05:42:50.147Z,17824
2016-04-21T05:43:50.151Z,18656
2016-04-21T05:44:50.153Z,19104
2016-04-21T05:45:51.014Z,18848
2016-04-21T05:46:51.300Z,19776
2016-04-21T05:47:50.364Z,20512
2016-04-21T05:48:51.476Z,21152
2016-04-21T05:49:50.183Z,21888
2016-04-21T05:50:50.231Z,23072
2016-04-21T05:51:50.266Z,24064
2016-04-21T05:52:50.221Z,24704
2016-04-21T05:53:50.334Z,24192
2016-04-21T05:54:50.227Z,24064
2016-04-21T05:55:50.807Z,25312
2016-04-21T05:56:51.420Z,25056
2016-04-21T05:57:51.438Z,24672
2016-04-21T05:58:51.034Z,25376
2016-04-21T05:59:50.272Z,25152
2016-04-21T06:00:50.821Z,24896
2016-04-21T06:01:51.308Z,26112
2016-04-21T06:02:50.296Z,27168
2016-04-21T06:03:50.313Z,26976
2016-04-21T06:04:50.301Z,25568
2016-04-21T06:05:50.304Z,24576
2016-04-21T06:06:50.337Z,25152
2016-04-21T06:07:50.340Z,25792
2016-04-21T06:08:50.373Z,25536
2016-04-21T06:09:50.189Z,25152
2016-04-21T06:10:50.379Z,25600
2016-04-21T06:11:50.367Z,26880
2016-04-21T06:12:50.400Z,27584
2016-04-21T06:13:50.387Z,28640
2016-04-21T06:14:50.406Z,29024
2016-04-21T06:15:50.424Z,30176
2016-04-21T06:16:50.426Z,31328
2016-04-21T06:17:50.414Z,31584
2016-04-21T06:18:50.448Z,31552
2016-04-21T06:19:50.466Z,32352
2016-04-21T06:20:50.469Z,32864
2016-04-21T06:21:50.502Z,32224
2016-04-21T06:22:50.489Z,31744
2016-04-21T06:23:50.508Z,33088
2016-04-21T06:24:50.526Z,35232
2016-04-21T06:25:50.529Z,33888
2016-04-21T06:26:50.532Z,33216
2016-04-21T06:27:50.550Z,34752
2016-04-21T06:28:50.537Z,36512
2016-04-21T06:29:50.571Z,37696
2016-04-21T06:30:50.574Z,36352
2016-04-21T06:31:50.592Z,34432
2016-04-21T06:32:50.595Z,34432
2016-04-21T06:33:52.004Z,34592
2016-04-21T06:34:51.975Z,36224
2016-04-21T06:35:51.431Z,39648
2016-04-21T06:36:50.668Z,40768
2016-04-21T06:37:51.171Z,39392
2016-04-21T06:38:50.768Z,39136
2016-04-21T06:39:50.692Z,38496
2016-04-21T06:40:50.679Z,38016
2016-04-21T06:41:50.713Z,41664
2016-04-21T06:42:52.278Z,43264
2016-04-21T06:43:50.748Z,42176
2016-04-21T06:44:51.549Z,41568
2016-04-21T06:45:51.801Z,40640
2016-04-21T06:46:51.726Z,40864
2016-04-21T06:47:50.823Z,42176
2016-04-21T06:48:50.826Z,41312
2016-04-21T06:49:51.015Z,40096
2016-04-21T06:50:50.815Z,41184
2016-04-21T06:51:50.850Z,43616
2016-04-21T06:52:50.867Z,45344
2016-04-21T06:53:50.886Z,47872
2016-04-21T06:54:50.873Z,48416
2016-04-21T06:55:50.922Z,49472
2016-04-21T06:56:50.909Z,49888
2016-04-21T06:57:50.912Z,47968
2016-04-21T06:58:50.961Z,45600
2016-04-21T06:59:50.949Z,47296
2016-04-21T07:00:50.967Z,48832
2016-04-21T07:01:50.985Z,45824
2016-04-21T07:02:51.019Z,44000
2016-04-21T07:03:51.007Z,44896
2016-04-21T07:04:53.430Z,46784
2016-04-21T07:05:52.512Z,49280
2016-04-21T07:06:51.374Z,50080
2016-04-21T07:07:52.220Z,51840
2016-04-21T07:08:51.973Z,50272
2016-04-21T07:09:51.976Z,49984
2016-04-21T07:10:51.368Z,50336
2016-04-21T07:11:51.371Z,51488
2016-04-21T07:12:51.312Z,56576
2016-04-21T07:13:51.190Z,58592
2016-04-21T07:14:52.817Z,55072
2016-04-21T07:15:53.117Z,54496
2016-04-21T07:16:52.759Z,56000
2016-04-21T07:17:51.872Z,56160
2016-04-21T07:18:54.828Z,52064
2016-04-21T07:19:51.252Z,49920
2016-04-21T07:20:51.724Z,50432
2016-04-21T07:21:51.351Z,50880
2016-04-21T07:22:51.291Z,49664
2016-04-21T07:23:51.342Z,50880
2016-04-21T07:24:51.329Z,52224
2016-04-21T07:25:51.362Z,54784
2016-04-21T07:26:51.381Z,58592
2016-04-21T07:27:51.400Z,61984
2016-04-21T07:28:51.417Z,60736
2016-04-21T07:29:51.452Z,57856
2016-04-21T07:30:51.469Z,58784
2016-04-21T07:31:51.472Z,66208
2016-04-21T07:32:51.538Z,71968
2016-04-21T07:33:51.493Z,70048
2016-04-21T07:34:51.511Z,67328
2016-04-21T07:35:51.498Z,65152
2016-04-21T07:36:51.548Z,66272
2016-04-21T07:37:51.567Z,70528
2016-04-21T07:38:51.585Z,76864
2016-04-21T07:39:51.571Z,81952
2016-04-21T07:40:51.622Z,82208
2016-04-21T07:41:51.609Z,88960
2016-04-21T07:42:51.658Z,97632
2016-04-21T07:43:51.646Z,95264
2016-04-21T07:44:51.679Z,90528
2016-04-21T07:45:51.682Z,86592
2016-04-21T07:46:51.731Z,89056
2016-04-21T07:47:51.718Z,93376
2016-04-21T07:48:51.737Z,92416
2016-04-21T07:49:51.770Z,85088
2016-04-21T07:50:51.773Z,80448
2016-04-21T07:51:54.104Z,80960
2016-04-21T07:53:06.279Z,82176
2016-04-21T07:54:06.031Z,75840
2016-04-21T07:54:52.675Z,77600
2016-04-21T07:55:51.709Z,83904
2016-04-21T07:56:51.899Z,81568
2016-04-21T07:57:52.386Z,81888
2016-04-21T07:58:51.920Z,85248
2016-04-21T07:59:51.938Z,79360
2016-04-21T08:00:51.972Z,66816
2016-04-21T08:01:52.240Z,56864
2016-04-21T08:03:06.041Z,53248
2016-04-21T08:03:52.027Z,50560
2016-04-21T08:04:52.045Z,51808
2016-04-21T08:05:52.970Z,55936
2016-04-21T08:06:52.066Z,50304
2016-04-21T08:07:52.100Z,50944
2016-04-21T08:08:51.963Z,56224
2016-04-21T08:09:52.152Z,58080
2016-04-21T08:10:52.140Z,56000
2016-04-21T08:11:52.173Z,50528
2016-04-21T08:12:52.192Z,50208
2016-04-21T08:13:52.054Z,48768
2016-04-21T08:14:52.213Z,53312
2016-04-21T08:15:52.263Z,60352
2016-04-21T08:16:52.234Z,60032
2016-04-21T08:17:52.268Z,54848
2016-04-21T08:18:52.270Z,54688
2016-04-21T08:19:52.305Z,51808
2016-04-21T08:20:52.307Z,54368
2016-04-21T08:21:52.342Z,62272
2016-04-21T08:22:52.328Z,59712
2016-04-21T08:23:53.127Z,50400
2016-04-21T08:24:52.381Z,43232
2016-04-21T08:25:53.336Z,43520
2016-04-21T08:26:53.480Z,48128
2016-04-21T08:27:53.372Z,52576
2016-04-21T08:28:53.236Z,61984
2016-04-21T08:29:52.441Z,63168
2016-04-21T08:30:52.599Z,34496
2016-04-21T08:31:52.478Z,9716
2016-04-21T08:32:52.464Z,8820
2016-04-21T08:33:53.186Z,8620
2016-04-21T08:34:53.205Z,8340
2016-04-21T08:35:52.519Z,8236
2016-04-21T08:36:53.538Z,8240
2016-04-21T08:37:52.555Z,8276
2016-04-21T08:38:53.058Z,8304
2016-04-21T08:39:52.593Z,8504
2016-04-21T08:40:52.626Z,8564
2016-04-21T08:41:52.583Z,8324
2016-04-21T08:42:52.616Z,8300
2016-04-21T08:43:52.604Z,8420
2016-04-21T08:44:52.607Z,8512
2016-04-21T08:45:52.640Z,8812
2016-04-21T08:46:52.626Z,8864
2016-04-21T08:47:52.646Z,8932
2016-04-21T08:48:52.618Z,8540
2016-04-21T08:49:52.651Z,8172
2016-04-21T08:50:52.637Z,7784
2016-04-21T08:51:52.672Z,7648
2016-04-21T08:52:52.679Z,7504
2016-04-21T08:53:52.667Z,7352
2016-04-21T08:54:52.653Z,7388
2016-04-21T08:55:52.672Z,7408
2016-04-21T08:56:52.658Z,7340
2016-04-21T08:57:52.677Z,7364
2016-04-21T08:58:52.680Z,7376
2016-04-21T08:59:52.666Z,7544
2016-04-21T09:00:52.700Z,7524
2016-04-21T09:01:52.704Z,7476
2016-04-21T09:02:52.706Z,7432
2016-04-21T09:03:52.677Z,7388
2016-04-21T09:04:52.711Z,7284
2016-04-21T09:05:52.699Z,7184
2016-04-21T09:06:52.702Z,7176
2016-04-21T09:07:52.704Z,7176
2016-04-21T09:08:52.691Z,7196
2016-04-21T09:09:52.710Z,7248
2016-04-21T09:10:54.649Z,7208
2016-04-21T09:11:54.324Z,7080
2016-04-21T09:12:53.514Z,6984
2016-04-21T09:13:52.721Z,7036
2016-04-21T09:14:53.114Z,7152
2016-04-21T09:15:53.273Z,7188
2016-04-21T09:16:52.712Z,7184
2016-04-21T09:17:52.715Z,7068
2016-04-21T09:18:52.717Z,6896
2016-04-21T09:19:52.721Z,6884
2016-04-21T09:21:07.911Z,6884
2016-04-21T09:21:53.367Z,6880
2016-04-21T09:22:53.478Z,6768
2016-04-21T09:23:53.106Z,6724
2016-04-21T09:24:52.734Z,6812
2016-04-21T09:25:52.987Z,6800
2016-04-21T09:26:53.475Z,6784
2016-04-21T09:27:52.712Z,6780
2016-04-21T09:28:52.714Z,6892
2016-04-21T09:29:52.733Z,6788
2016-04-21T09:30:52.735Z,6732
2016-04-21T09:31:52.722Z,6724
2016-04-21T09:32:52.724Z,6724
2016-04-21T09:33:52.711Z,6744
2016-04-21T09:34:52.730Z,6736
2016-04-21T09:35:52.717Z,6708
2016-04-21T09:36:52.735Z,6724
2016-04-21T09:37:52.707Z,6688
2016-04-21T09:38:52.740Z,6580
2016-04-21T09:39:52.728Z,6532
2016-04-21T09:40:52.746Z,6524
2016-04-21T09:41:52.733Z,6460
2016-04-21T09:42:53.313Z,6372
2016-04-21T09:43:54.957Z,6244
2016-04-21T09:44:52.788Z,6112
2016-04-21T09:45:53.009Z,6008
2016-04-21T09:46:52.887Z,5896
2016-04-21T09:47:52.968Z,5864
2016-04-21T09:48:53.236Z,5820
2016-04-21T09:49:52.755Z,5804
2016-04-21T09:50:52.710Z,5760
2016-04-21T09:51:53.087Z,5712
2016-04-21T09:52:53.185Z,5676
2016-04-21T09:53:52.797Z,5624
2016-04-21T09:54:52.721Z,5592
2016-04-21T09:55:53.146Z,5656
2016-04-21T09:56:53.461Z,5700
2016-04-21T09:57:52.729Z,5688
2016-04-21T09:58:53.106Z,5680
2016-04-21T09:59:52.720Z,5684
2016-04-21T10:00:52.722Z,5620
2016-04-21T10:01:52.725Z,5524
2016-04-21T10:02:52.728Z,5376
2016-04-21T10:03:52.745Z,5292
2016-04-21T10:04:52.716Z,5284
2016-04-21T10:05:52.750Z,5292
2016-04-21T10:06:52.707Z,5300
2016-04-21T10:07:52.725Z,5320
2016-04-21T10:08:52.727Z,5312
2016-04-21T10:09:52.730Z,5272
2016-04-21T10:10:52.750Z,5276
2016-04-21T10:11:52.812Z,5272
2016-04-21T10:12:52.718Z,5224
2016-04-21T10:13:52.874Z,5188
2016-04-21T10:14:52.921Z,5184
2016-04-21T10:15:52.963Z,5132
2016-04-21T10:16:52.950Z,5052
2016-04-21T10:17:53.015Z,4996
2016-04-21T10:18:53.003Z,4996
2016-04-21T10:19:53.022Z,5000
2016-04-21T10:20:53.016Z,4996
2016-04-21T10:21:53.056Z,4988
2016-04-21T10:22:53.034Z,5024
2016-04-21T10:23:53.027Z,5044
2016-04-21T10:24:53.050Z,5060
2016-04-21T10:25:53.025Z,5056
2016-04-21T10:26:53.045Z,5040
2016-04-21T10:27:53.050Z,5060
2016-04-21T10:28:53.055Z,5036
2016-04-21T10:29:55.153Z,5004
2016-04-21T10:30:54.361Z,4996
2016-04-21T10:31:53.145Z,4924
2016-04-21T10:32:54.398Z,4868
2016-04-21T10:34:53.311Z,4800
2016-04-21T10:35:53.611Z,4812
2016-04-21T10:36:53.036Z,4824
2016-04-21T10:37:53.071Z,4796
2016-04-21T10:38:53.057Z,4760
2016-04-21T10:40:08.045Z,4744
2016-04-21T10:40:53.251Z,4736
2016-04-21T10:41:53.066Z,4720
2016-04-21T10:42:53.069Z,4720
2016-04-21T10:43:53.650Z,4756
2016-04-21T10:45:07.246Z,4772
2016-04-21T10:45:53.187Z,4756
2016-04-21T10:46:53.064Z,4752
2016-04-21T10:47:53.037Z,4760
2016-04-21T10:48:53.054Z,4776
2016-04-21T10:49:53.057Z,4768
2016-04-21T10:50:53.045Z,4724
2016-04-21T10:51:53.047Z,4656
2016-04-21T10:52:53.065Z,4652
2016-04-21T10:53:53.053Z,4664
2016-04-21T10:54:53.101Z,4672
2016-04-21T10:55:53.058Z,4684
2016-04-21T10:56:53.060Z,4688
2016-04-21T10:57:53.047Z,4676
2016-04-21T10:58:53.050Z,4664
2016-04-21T10:59:53.052Z,4656
2016-04-21T11:00:53.039Z,4656
2016-04-21T11:01:54.011Z,4652
2016-04-21T11:02:55.155Z,4624
2016-04-21T11:03:53.032Z,4600
2016-04-21T11:04:53.175Z,4592
2016-04-21T11:05:53.585Z,4580
2016-04-21T11:06:53.056Z,4572
2016-04-21T11:07:53.090Z,4564
2016-04-21T11:08:53.514Z,4544
2016-04-21T11:09:53.063Z,4536
2016-04-21T11:10:53.832Z,4520
2016-04-21T11:11:53.569Z,4528
2016-04-21T11:12:53.041Z,4532
2016-04-21T11:13:54.309Z,4520
2016-04-21T11:14:54.109Z,4516
2016-04-21T11:15:53.658Z,4516
2016-04-21T11:16:53.208Z,4508
2016-04-21T11:17:53.256Z,4500
2016-04-21T11:18:53.244Z,4488
2016-04-21T11:19:53.028Z,4488
2016-04-21T11:20:53.031Z,4500
2016-04-21T11:21:53.033Z,4492
2016-04-21T11:22:53.021Z,4480
2016-04-21T11:23:53.023Z,4460
2016-04-21T11:24:52.979Z,4448
2016-04-21T11:25:53.028Z,4440
2016-04-21T11:26:53.047Z,4460
2016-04-21T11:27:53.034Z,4468
2016-04-21T11:28:53.037Z,4468
2016-04-21T11:29:53.024Z,4464
2016-04-21T11:30:53.011Z,4456
2016-04-21T11:31:53.029Z,4452
2016-04-21T11:32:53.032Z,4452
2016-04-21T11:33:53.050Z,4456
2016-04-21T11:34:53.022Z,4448
2016-04-21T11:35:53.040Z,4444
2016-04-21T11:36:53.027Z,4444
2016-04-21T11:37:53.029Z,4428
2016-04-21T11:38:53.048Z,4396
2016-04-21T11:39:53.082Z,4388
2016-04-21T11:40:53.022Z,4380
2016-04-21T11:41:53.025Z,4384
2016-04-21T11:42:53.027Z,4396
2016-04-21T11:43:53.030Z,4396
2016-04-21T11:44:53.018Z,4400
2016-04-21T11:45:53.005Z,4404
2016-04-21T11:46:53.007Z,4392
2016-04-21T11:47:53.025Z,4380
2016-04-21T11:48:55.356Z,4372
2016-04-21T11:49:54.078Z,4360
2016-04-21T11:50:53.018Z,4332
2016-04-21T11:51:53.209Z,4308
2016-04-21T11:52:53.086Z,4288
2016-04-21T11:53:53.494Z,4272
2016-04-21T11:54:53.512Z,4268
2016-04-21T11:55:53.109Z,4268
2016-04-21T11:56:53.018Z,4256
2016-04-21T11:57:53.006Z,4248
2016-04-21T11:59:07.695Z,4236
2016-04-21T11:59:52.995Z,4236
2016-04-21T12:00:53.028Z,4228
2016-04-21T12:01:53.547Z,4224
2016-04-21T12:02:53.425Z,4228
2016-04-21T12:03:53.647Z,4248
2016-04-21T12:04:53.025Z,4256
2016-04-21T12:05:52.996Z,4256
2016-04-21T12:06:53.045Z,4268
2016-04-21T12:07:53.016Z,4272
2016-04-21T12:08:52.988Z,4276
2016-04-21T12:09:52.975Z,4284
2016-04-21T12:10:53.009Z,4276
2016-04-21T12:11:53.027Z,4256
2016-04-21T12:12:53.030Z,4240
2016-04-21T12:13:53.017Z,4224
2016-04-21T12:14:53.004Z,4228
2016-04-21T12:15:52.991Z,4232
2016-04-21T12:16:53.010Z,4236
2016-04-21T12:17:52.996Z,4228
2016-04-21T12:18:52.999Z,4204
2016-04-21T12:19:53.017Z,4176
2016-04-21T12:20:54.004Z,4152
2016-04-21T12:21:54.757Z,4128
2016-04-21T12:22:53.009Z,4104
2016-04-21T12:23:53.951Z,4100
2016-04-21T12:24:53.031Z,4108
2016-04-21T12:25:53.065Z,4112
2016-04-21T12:26:52.973Z,4116
2016-04-21T12:27:52.977Z,4112
2016-04-21T12:28:52.979Z,4092
2016-04-21T12:29:53.825Z,4072
2016-04-21T12:30:52.984Z,4056
2016-04-21T12:31:54.769Z,4036
2016-04-21T12:32:53.365Z,4020
2016-04-21T12:33:53.227Z,4016
2016-04-21T12:34:52.995Z,4012
2016-04-21T12:35:52.982Z,4016
2016-04-21T12:36:53.016Z,4008
2016-04-21T12:37:52.988Z,4020
2016-04-21T12:38:52.991Z,4016
2016-04-21T12:39:52.837Z,4008
2016-04-21T12:40:52.980Z,3996
2016-04-21T12:41:52.983Z,4000
2016-04-21T12:42:52.986Z,4008
2016-04-21T12:43:52.973Z,4008
2016-04-21T12:44:52.976Z,4012
2016-04-21T12:45:52.978Z,4016
2016-04-21T12:46:52.996Z,4012
2016-04-21T12:47:52.999Z,4004
2016-04-21T12:48:52.954Z,4008
2016-04-21T12:49:52.990Z,4020
2016-04-21T12:50:52.960Z,4016
2016-04-21T12:51:52.979Z,4012
2016-04-21T12:52:52.966Z,4008
2016-04-21T12:53:52.984Z,4008
2016-04-21T12:54:52.987Z,4004
2016-04-21T12:55:52.973Z,4004
2016-04-21T12:56:52.976Z,4000
2016-04-21T12:57:52.979Z,4004
2016-04-21T12:58:52.982Z,4000
2016-04-21T12:59:52.985Z,3996
2016-04-21T13:00:52.956Z,3996
2016-04-21T13:01:52.975Z,3992
2016-04-21T13:02:52.978Z,3984
2016-04-21T13:03:52.995Z,3976
2016-04-21T13:04:52.966Z,3968
2016-04-21T13:05:52.969Z,3960
2016-04-21T13:06:52.941Z,3952
2016-04-21T13:07:55.319Z,3932
2016-04-21T13:08:53.821Z,3928
2016-04-21T13:09:52.839Z,3920
2016-04-21T13:10:52.967Z,3924
2016-04-21T13:11:52.986Z,3932
2016-04-21T13:12:53.051Z,3920
2016-04-21T13:13:52.959Z,3920
2016-04-21T13:14:52.978Z,3928
2016-04-21T13:15:52.965Z,3920
2016-04-21T13:18:07.549Z,3908
2016-04-21T13:18:52.973Z,3908
2016-04-21T13:19:54.007Z,3908
2016-04-21T13:20:52.963Z,3908
2016-04-21T13:21:52.951Z,3908
2016-04-21T13:22:52.969Z,3908
2016-04-21T13:23:52.956Z,3912
2016-04-21T13:24:53.020Z,3916
2016-04-21T13:25:52.945Z,3924
2016-04-21T13:26:52.963Z,3936
2016-04-21T13:27:52.951Z,3932
2016-04-21T13:28:52.953Z,3928
2016-04-21T13:29:52.940Z,3924
2016-04-21T13:30:52.959Z,3916
2016-04-21T13:31:52.931Z,3916
2016-04-21T13:32:52.948Z,3916
2016-04-21T13:33:52.951Z,3908
2016-04-21T13:34:52.954Z,3904
2016-04-21T13:35:52.941Z,3884